createdAt,value
2018-05-11T00:02:02.419Z,101574.21
2018-05-11T00:04:30.715Z,101580.02
2018-05-11T00:06:59.851Z,101576.63
2018-05-11T00:09:28.157Z,101582.92
2018-05-11T00:11:56.659Z,101588.38
2018-05-11T00:14:24.942Z,101584.96
2018-05-11T00:16:55.626Z,101580.50
2018-05-11T00:19:23.915Z,101585.80
2018-05-11T00:21:52.910Z,101586.61
2018-05-11T00:24:21.288Z,101586.80
2018-05-11T00:26:49.561Z,101589.09
2018-05-11T00:29:18.455Z,101591.66
2018-05-11T00:31:46.726Z,101592.02
2018-05-11T00:34:15.028Z,101595.75
2018-05-11T00:36:43.691Z,101592.88
2018-05-11T00:39:12.348Z,101600.79
2018-05-11T00:41:40.672Z,101595.75
2018-05-11T00:44:08.943Z,101604.59
2018-05-11T00:46:37.351Z,101611.69
2018-05-11T00:49:05.650Z,101616.64
2018-05-11T00:51:35.578Z,101612.06
2018-05-11T00:54:04.330Z,101610.08
2018-05-11T00:56:32.982Z,101612.97
2018-05-11T00:59:01.791Z,101609.13
2018-05-11T01:01:30.477Z,101605.38
2018-05-11T01:03:59.415Z,101605.81
2018-05-11T01:06:28.467Z,101604.49
2018-05-11T01:08:56.778Z,101606.19
2018-05-11T01:11:25.830Z,101614.13
2018-05-11T01:13:54.415Z,101620.75
2018-05-11T01:16:22.713Z,101623.98
2018-05-11T01:18:51.760Z,101629.03
2018-05-11T01:21:21.615Z,101634.02
2018-05-11T01:23:49.973Z,101637.83
2018-05-11T01:26:18.263Z,101627.39
2018-05-11T01:28:46.772Z,101631.56
2018-05-11T01:31:15.622Z,101635.23
2018-05-11T01:33:44.686Z,101636.91
2018-05-11T01:36:13.982Z,101644.78
2018-05-11T01:38:43.618Z,101648.59
2018-05-11T01:41:11.918Z,101649.04
2018-05-11T01:43:40.398Z,101656.52
2018-05-11T01:46:09.036Z,101661.02
2018-05-11T01:48:38.134Z,101678.06
2018-05-11T01:51:07.174Z,101686.82
2018-05-11T01:53:35.485Z,101693.94
2018-05-11T01:56:03.783Z,101695.58
2018-05-11T01:58:32.859Z,101691.99
2018-05-11T02:01:02.592Z,101697.72
2018-05-11T02:03:32.414Z,101708.53
2018-05-11T02:06:01.507Z,101704.05
2018-05-11T02:08:30.570Z,101707.38
2018-05-11T02:10:58.924Z,101706.43
2018-05-11T02:13:27.647Z,101712.69
2018-05-11T02:15:56.419Z,101718.58
2018-05-11T02:18:24.702Z,101720.22
2018-05-11T02:20:53.265Z,101722.22
2018-05-11T02:23:21.923Z,101727.55
2018-05-11T02:25:50.735Z,101732.16
2018-05-11T02:28:20.361Z,101734.73
2018-05-11T02:30:48.646Z,101740.08
2018-05-11T02:33:17.799Z,101741.40
2018-05-11T02:35:46.738Z,101741.80
2018-05-11T02:38:15.220Z,101745.16
2018-05-11T02:40:43.850Z,101747.66
2018-05-11T02:43:13.628Z,101745.70
2018-05-11T02:45:42.535Z,101747.32
2018-05-11T02:48:11.610Z,101744.42
2018-05-11T02:50:40.447Z,101758.50
2018-05-11T02:53:09.856Z,101755.66
2018-05-11T02:55:38.568Z,101758.89
2018-05-11T02:58:06.838Z,101756.81
2018-05-11T03:00:35.131Z,101761.86
2018-05-11T03:03:04.095Z,101759.64
2018-05-11T03:05:32.819Z,101758.89
2018-05-11T03:08:01.124Z,101760.40
2018-05-11T03:10:29.533Z,101758.66
2018-05-11T03:12:58.471Z,101761.55
2018-05-11T03:15:26.763Z,101762.52
2018-05-11T03:17:55.212Z,101764.99
2018-05-11T03:20:23.511Z,101765.89
2018-05-11T03:22:51.807Z,101763.28
2018-05-11T03:25:20.098Z,101766.31
2018-05-11T03:27:48.759Z,101777.38
2018-05-11T03:30:18.762Z,101776.09
2018-05-11T03:32:48.451Z,101778.55
2018-05-11T03:35:16.755Z,101779.80
2018-05-11T03:37:45.999Z,101780.20
2018-05-11T03:40:15.698Z,101783.05
2018-05-11T03:42:45.108Z,101780.66
2018-05-11T03:45:14.695Z,101783.92
2018-05-11T03:47:44.178Z,101782.73
2018-05-11T03:50:13.258Z,101788.12
2018-05-11T03:52:41.539Z,101790.75
2018-05-11T03:55:09.815Z,101791.58
2018-05-11T03:57:38.123Z,101790.28
2018-05-11T04:00:07.429Z,101786.91
2018-05-11T04:02:54.323Z,101779.76
2018-05-11T04:05:40.449Z,101786.89
2018-05-11T04:08:27.546Z,101785.92
2018-05-11T04:10:57.190Z,101790.23
2018-05-11T04:13:26.227Z,101795.27
2018-05-11T04:15:54.991Z,101797.80
2018-05-11T04:18:24.035Z,101797.77
2018-05-11T04:20:52.374Z,101801.85
2018-05-11T04:23:21.674Z,101806.55
2018-05-11T04:25:50.722Z,101811.14
2018-05-11T04:28:19.031Z,101814.25
2018-05-11T04:30:48.126Z,101816.23
2018-05-11T04:33:17.796Z,101821.52
2018-05-11T04:35:46.254Z,101824.53
2018-05-11T04:38:15.561Z,101827.81
2018-05-11T04:40:43.838Z,101832.76
2018-05-11T04:43:12.218Z,101838.06
2018-05-11T04:45:40.491Z,101840.20
2018-05-11T04:48:09.190Z,101847.81
2018-05-11T04:50:38.127Z,101847.76
2018-05-11T04:53:06.838Z,101848.44
2018-05-11T04:55:35.583Z,101845.91
2018-05-11T04:58:04.178Z,101848.45
2018-05-11T05:00:34.059Z,101851.81
2018-05-11T05:03:02.624Z,101857.97
2018-05-11T05:05:30.910Z,101857.95
2018-05-11T05:07:59.449Z,101860.20
2018-05-11T05:10:28.442Z,101857.07
2018-05-11T05:12:57.234Z,101860.89
2018-05-11T05:15:26.331Z,101862.51
2018-05-11T05:17:54.731Z,101865.75
2018-05-11T05:20:23.899Z,101866.11
2018-05-11T05:22:52.211Z,101859.97
2018-05-11T05:25:21.270Z,101859.63
2018-05-11T05:27:50.239Z,101853.40
2018-05-11T05:30:18.523Z,101859.28
2018-05-11T05:32:46.890Z,101865.22
2018-05-11T05:35:15.580Z,101866.26
2018-05-11T05:37:45.034Z,101865.75
2018-05-11T05:40:14.885Z,101864.64
2018-05-11T05:42:43.271Z,101868.89
2018-05-11T05:45:12.231Z,101871.31
2018-05-11T05:47:41.289Z,101873.40
2018-05-11T05:50:09.681Z,101879.67
2018-05-11T05:52:38.587Z,101879.91
2018-05-11T05:55:06.938Z,101879.38
2018-05-11T05:57:36.032Z,101881.22
2018-05-11T06:00:04.815Z,101880.91
2018-05-11T06:02:33.615Z,101877.34
2018-05-11T06:05:03.280Z,101879.21
2018-05-11T06:07:31.558Z,101877.44
2018-05-11T06:10:00.754Z,101874.14
2018-05-11T06:12:29.028Z,101871.72
2018-05-11T06:14:58.231Z,101873.91
2018-05-11T06:17:27.201Z,101875.53
2018-05-11T06:19:55.683Z,101880.47
2018-05-11T06:22:24.324Z,101888.09
2018-05-11T06:24:52.656Z,101886.84
2018-05-11T06:27:22.518Z,101884.58
2018-05-11T06:29:50.799Z,101885.93
2018-05-11T06:32:19.175Z,101887.58
2018-05-11T06:34:47.678Z,101887.38
2018-05-11T06:37:16.663Z,101889.01
2018-05-11T06:39:46.486Z,101880.14
2018-05-11T06:42:14.758Z,101877.50
2018-05-11T06:44:43.066Z,101885.12
2018-05-11T06:47:12.921Z,101889.37
2018-05-11T06:49:41.220Z,101893.63
2018-05-11T06:52:10.015Z,101892.81
2018-05-11T06:54:38.313Z,101894.66
2018-05-11T06:57:07.303Z,101888.92
2018-05-11T06:59:36.367Z,101894.00
2018-05-11T07:02:04.766Z,101896.84
2018-05-11T07:04:33.538Z,101890.55
2018-05-11T07:07:01.922Z,101885.10
2018-05-11T07:09:30.308Z,101892.64
2018-05-11T07:11:58.791Z,101899.62
2018-05-11T07:14:27.160Z,101896.63
2018-05-11T07:16:56.359Z,101895.45
2018-05-11T07:19:26.024Z,101899.14
2018-05-11T07:21:54.875Z,101891.48
2018-05-11T07:24:23.158Z,101888.05
2018-05-11T07:26:51.532Z,101887.73
2018-05-11T07:29:19.819Z,101891.39
2018-05-11T07:31:48.606Z,101899.62
2018-05-11T07:34:17.171Z,101899.41
2018-05-11T07:36:46.071Z,101897.87
2018-05-11T07:39:14.747Z,101888.72
2018-05-11T07:41:43.551Z,101888.27
2018-05-11T07:44:11.853Z,101886.28
2018-05-11T07:46:40.746Z,101882.73
2018-05-11T07:49:09.654Z,101882.94
2018-05-11T07:51:38.794Z,101879.64
2018-05-11T07:54:08.464Z,101879.88
2018-05-11T07:56:37.711Z,101877.31
2018-05-11T07:59:05.978Z,101872.61
2018-05-11T08:01:34.979Z,101883.89
2018-05-11T08:04:03.309Z,101886.09
2018-05-11T08:06:31.567Z,101879.64
2018-05-11T08:09:00.666Z,101877.99
2018-05-11T08:11:29.262Z,101868.58
2018-05-11T08:13:58.145Z,101872.22
2018-05-11T08:16:27.132Z,101872.44
2018-05-11T08:18:55.786Z,101877.67
2018-05-11T08:21:24.655Z,101879.08
2018-05-11T08:23:53.534Z,101872.41
2018-05-11T08:26:23.318Z,101880.84
2018-05-11T08:28:51.601Z,101872.61
2018-05-11T08:31:20.458Z,101868.77
2018-05-11T08:33:49.656Z,101870.43
2018-05-11T08:36:18.039Z,101874.24
2018-05-11T08:38:46.876Z,101873.64
2018-05-11T08:41:15.951Z,101869.88
2018-05-11T08:43:44.326Z,101869.47
2018-05-11T08:46:13.310Z,101866.59
2018-05-11T08:48:43.031Z,101870.64
2018-05-11T08:51:11.928Z,101868.67
2018-05-11T08:53:40.317Z,101872.06
2018-05-11T08:56:09.183Z,101875.06
2018-05-11T08:58:37.494Z,101875.42
2018-05-11T09:01:06.541Z,101873.42
2018-05-11T09:03:35.251Z,101877.20
2018-05-11T09:06:03.828Z,101875.37
2018-05-11T09:08:32.122Z,101870.16
2018-05-11T09:11:01.004Z,101869.23
2018-05-11T09:13:29.389Z,101873.02
2018-05-11T09:15:57.686Z,101872.27
2018-05-11T09:18:26.430Z,101865.27
2018-05-11T09:20:54.751Z,101861.88
2018-05-11T09:23:24.395Z,101861.50
2018-05-11T09:25:53.365Z,101857.88
2018-05-11T09:28:21.724Z,101859.11
2018-05-11T09:30:50.743Z,101854.09
2018-05-11T09:33:20.425Z,101857.50
2018-05-11T09:35:48.724Z,101862.15
2018-05-11T09:38:17.068Z,101852.12
2018-05-11T09:40:46.514Z,101861.84
2018-05-11T09:43:15.593Z,101862.64
2018-05-11T09:45:44.700Z,101868.45
2018-05-11T09:48:12.966Z,101868.84
2018-05-11T09:50:42.537Z,101870.61
2018-05-11T09:53:10.920Z,101862.25
2018-05-11T09:55:39.335Z,101869.00
2018-05-11T09:58:08.130Z,101869.41
2018-05-11T10:00:36.999Z,101871.72
2018-05-11T10:03:05.703Z,101871.32
2018-05-11T10:05:35.703Z,101875.53
2018-05-11T10:08:04.058Z,101875.12
2018-05-11T10:10:32.349Z,101874.73
2018-05-11T10:13:01.228Z,101871.39
2018-05-11T10:15:29.743Z,101871.36
2018-05-11T10:17:58.142Z,101876.36
2018-05-11T10:20:27.836Z,101869.30
2018-05-11T10:22:56.150Z,101870.14
2018-05-11T10:25:25.295Z,101869.72
2018-05-11T10:27:54.295Z,101871.02
2018-05-11T10:30:23.347Z,101872.31
2018-05-11T10:32:52.407Z,101869.33
2018-05-11T10:35:20.675Z,101865.14
2018-05-11T10:37:49.182Z,101876.48
2018-05-11T10:40:19.028Z,101871.45
2018-05-11T10:42:47.291Z,101865.13
2018-05-11T10:45:16.357Z,101872.73
2018-05-11T10:47:44.647Z,101873.55
2018-05-11T10:50:14.012Z,101872.28
2018-05-11T10:52:42.399Z,101872.30
2018-05-11T10:55:11.391Z,101868.09
2018-05-11T10:57:40.421Z,101872.28
2018-05-11T11:00:10.203Z,101864.72
2018-05-11T11:02:38.479Z,101867.19
2018-05-11T11:05:06.742Z,101866.34
2018-05-11T11:07:35.181Z,101870.10
2018-05-11T11:10:04.223Z,101858.72
2018-05-11T11:12:32.897Z,101867.05
2018-05-11T11:15:01.660Z,101873.41
2018-05-11T11:17:31.440Z,101865.41
2018-05-11T11:20:00.241Z,101869.67
2018-05-11T11:22:28.978Z,101870.48
2018-05-11T11:24:57.538Z,101861.16
2018-05-11T11:27:27.282Z,101862.39
2018-05-11T11:29:55.785Z,101864.67
2018-05-11T11:32:24.052Z,101862.72
2018-05-11T11:34:52.691Z,101867.36
2018-05-11T11:37:21.762Z,101860.59
2018-05-11T11:39:51.403Z,101859.88
2018-05-11T11:42:21.195Z,101855.62
2018-05-11T11:44:49.523Z,101855.09
2018-05-11T11:47:18.590Z,101854.19
2018-05-11T11:49:48.468Z,101848.55
2018-05-11T11:52:18.313Z,101850.13
2018-05-11T11:54:47.355Z,101851.00
2018-05-11T11:57:15.659Z,101844.19
2018-05-11T11:59:43.930Z,101846.63
2018-05-11T12:02:12.610Z,101845.03
2018-05-11T12:04:40.925Z,101841.19
2018-05-11T12:07:10.065Z,101839.33
2018-05-11T12:09:39.675Z,101831.55
2018-05-11T12:12:08.659Z,101837.28
2018-05-11T12:14:37.446Z,101837.14
2018-05-11T12:17:05.721Z,101826.13
2018-05-11T12:19:34.113Z,101829.81
2018-05-11T12:22:02.801Z,101833.95
2018-05-11T12:24:31.443Z,101824.37
2018-05-11T12:27:01.443Z,101822.83
2018-05-11T12:29:30.498Z,101827.75
2018-05-11T12:31:58.778Z,101833.96
2018-05-11T12:34:28.610Z,101828.93
2018-05-11T12:36:57.644Z,101832.40
2018-05-11T12:39:27.545Z,101829.03
2018-05-11T12:41:56.898Z,101827.53
2018-05-11T12:44:25.173Z,101822.12
2018-05-11T12:46:53.570Z,101829.05
2018-05-11T12:49:22.627Z,101832.64
2018-05-11T12:51:51.491Z,101827.72
2018-05-11T12:54:20.057Z,101820.06
2018-05-11T12:56:49.244Z,101818.58
2018-05-11T12:59:18.014Z,101819.73
2018-05-11T13:01:47.026Z,101828.77
2018-05-11T13:04:15.300Z,101837.37
2018-05-11T13:06:45.223Z,101826.07
2018-05-11T13:09:13.556Z,101833.53
2018-05-11T13:11:42.587Z,101828.97
2018-05-11T13:14:10.859Z,101827.55
2018-05-11T13:16:39.163Z,101823.23
2018-05-11T13:19:07.433Z,101814.36
2018-05-11T13:21:35.735Z,101817.16
2018-05-11T13:24:05.103Z,101811.48
2018-05-11T13:26:33.381Z,101816.37
2018-05-11T13:29:01.666Z,101806.70
2018-05-11T13:31:30.155Z,101795.59
2018-05-11T13:33:58.423Z,101794.36
2018-05-11T13:36:26.970Z,101787.33
2018-05-11T13:38:55.378Z,101789.83
2018-05-11T13:41:24.919Z,101785.16
2018-05-11T13:43:53.580Z,101783.38
2018-05-11T13:46:22.483Z,101783.70
2018-05-11T13:48:51.393Z,101774.94
2018-05-11T13:51:19.953Z,101770.26
2018-05-11T13:53:48.231Z,101765.91
2018-05-11T13:56:16.529Z,101760.70
2018-05-11T13:58:44.906Z,101764.64
2018-05-11T14:01:13.228Z,101772.48
2018-05-11T14:03:42.281Z,101761.73
2018-05-11T14:06:11.338Z,101758.37
2018-05-11T14:08:39.643Z,101748.09
2018-05-11T14:11:07.934Z,101753.41
2018-05-11T14:13:36.199Z,101754.41
2018-05-11T14:16:04.612Z,101752.06
2018-05-11T14:18:32.890Z,101758.77
2018-05-11T14:21:02.899Z,101759.86
2018-05-11T14:23:31.186Z,101764.91
2018-05-11T14:25:59.474Z,101754.61
2018-05-11T14:28:28.523Z,101752.11
2018-05-11T14:30:56.898Z,101747.09
2018-05-11T14:33:26.899Z,101748.87
2018-05-11T14:35:55.844Z,101744.98
2018-05-11T14:38:24.592Z,101750.07
2018-05-11T14:40:52.885Z,101746.14
2018-05-11T14:43:21.229Z,101743.70
2018-05-11T14:45:49.827Z,101743.52
2018-05-11T14:48:18.115Z,101744.56
2018-05-11T14:50:47.116Z,101736.92
2018-05-11T14:53:15.493Z,101728.84
2018-05-11T14:55:43.785Z,101730.55
2018-05-11T14:58:12.451Z,101726.59
2018-05-11T15:00:41.755Z,101727.26
2018-05-11T15:03:10.042Z,101721.59
2018-05-11T15:05:38.315Z,101730.98
2018-05-11T15:08:06.714Z,101732.92
2018-05-11T15:10:35.079Z,101732.80
2018-05-11T15:13:03.560Z,101729.19
2018-05-11T15:15:32.573Z,101734.63
2018-05-11T15:18:01.151Z,101721.06
2018-05-11T15:20:29.426Z,101719.42
2018-05-11T15:22:58.515Z,101714.87
2018-05-11T15:25:26.790Z,101711.58
2018-05-11T15:27:55.060Z,101707.38
2018-05-11T15:30:23.350Z,101710.48
2018-05-11T15:32:51.637Z,101713.32
2018-05-11T15:35:19.923Z,101711.02
2018-05-11T15:37:48.259Z,101704.28
2018-05-11T15:40:16.551Z,101701.95
2018-05-11T15:42:45.343Z,101707.84
2018-05-11T15:45:13.614Z,101708.73
2018-05-11T15:47:41.890Z,101703.02
2018-05-11T15:50:10.270Z,101699.91
2018-05-11T15:52:38.654Z,101697.83
2018-05-11T15:55:06.944Z,101704.30
2018-05-11T15:57:36.664Z,101699.59
2018-05-11T16:00:04.965Z,101694.38
2018-05-11T16:02:34.069Z,101697.66
2018-05-11T16:05:03.123Z,101689.28
2018-05-11T16:07:32.614Z,101691.77
2018-05-11T16:10:00.889Z,101684.41
2018-05-11T16:12:30.190Z,101690.77
2018-05-11T16:14:59.298Z,101687.50
2018-05-11T16:17:27.699Z,101686.24
2018-05-11T16:19:56.290Z,101690.36
2018-05-11T16:22:25.510Z,101686.69
2018-05-11T16:24:53.938Z,101680.91
2018-05-11T16:27:22.716Z,101684.97
2018-05-11T16:29:51.025Z,101683.95
2018-05-11T16:32:19.300Z,101687.59
2018-05-11T16:34:48.892Z,101689.84
2018-05-11T16:37:17.233Z,101693.75
2018-05-11T16:39:45.462Z,101690.13
2018-05-11T16:42:14.091Z,101689.04
2018-05-11T16:44:43.733Z,101685.45
2018-05-11T16:47:13.408Z,101678.69
2018-05-11T16:49:43.168Z,101684.14
2018-05-11T16:52:11.769Z,101683.55
2018-05-11T16:54:40.066Z,101685.58
2018-05-11T16:57:08.355Z,101679.54
2018-05-11T16:59:36.689Z,101673.40
2018-05-11T17:02:05.002Z,101675.36
2018-05-11T17:04:34.535Z,101676.80
2018-05-11T17:07:04.309Z,101678.45
2018-05-11T17:09:32.601Z,101676.47
2018-05-11T17:12:00.957Z,101671.76
2018-05-11T17:14:30.419Z,101680.20
2018-05-11T17:16:59.454Z,101675.98
2018-05-11T17:19:28.223Z,101673.56
2018-05-11T17:21:56.496Z,101671.86
2018-05-11T17:24:24.766Z,101676.36
2018-05-11T17:26:53.055Z,101673.94
2018-05-11T17:29:21.942Z,101671.86
2018-05-11T17:31:50.964Z,101667.33
2018-05-11T17:34:19.951Z,101675.67
2018-05-11T17:36:48.326Z,101678.28
2018-05-11T17:39:17.230Z,101678.63
2018-05-11T17:41:46.739Z,101683.49
2018-05-11T17:44:15.038Z,101681.09
2018-05-11T17:46:45.083Z,101675.17
2018-05-11T17:49:14.615Z,101682.89
2018-05-11T17:51:42.920Z,101683.15
2018-05-11T17:54:11.219Z,101686.23
2018-05-11T17:56:40.510Z,101677.95
2018-05-11T17:59:08.797Z,101679.98
2018-05-11T18:01:37.662Z,101679.29
2018-05-11T18:04:06.053Z,101674.23
2018-05-11T18:06:34.341Z,101678.38
2018-05-11T18:09:03.240Z,101683.28
2018-05-11T18:11:31.521Z,101676.47
2018-05-11T18:14:02.047Z,101677.11
2018-05-11T18:16:30.474Z,101677.14
2018-05-11T18:18:58.863Z,101676.34
2018-05-11T18:21:27.786Z,101673.84
2018-05-11T18:23:56.510Z,101672.27
2018-05-11T18:26:25.550Z,101673.98
2018-05-11T18:28:53.858Z,101682.48
2018-05-11T18:31:22.948Z,101681.18
2018-05-11T18:33:51.223Z,101685.88
2018-05-11T18:36:19.603Z,101688.81
2018-05-11T18:38:47.886Z,101698.24
2018-05-11T18:41:17.075Z,101692.38
2018-05-11T18:43:46.094Z,101691.66
2018-05-11T18:46:15.585Z,101692.13
2018-05-11T18:48:43.862Z,101693.39
2018-05-11T18:51:12.783Z,101691.39
2018-05-11T18:53:42.239Z,101696.49
2018-05-11T18:56:10.124Z,101692.33
2018-05-11T18:58:38.459Z,101699.14
2018-05-11T19:01:07.543Z,101703.00
2018-05-11T19:03:37.224Z,101707.23
2018-05-11T19:06:06.040Z,101714.79
2018-05-11T19:08:35.159Z,101719.45
2018-05-11T19:11:03.863Z,101723.70
2018-05-11T19:13:32.194Z,101724.09
2018-05-11T19:16:01.273Z,101730.39
2018-05-11T19:18:29.902Z,101732.50
2018-05-11T19:20:58.168Z,101738.39
2018-05-11T19:23:27.586Z,101735.45
2018-05-11T19:25:55.994Z,101747.64
2018-05-11T19:28:24.271Z,101747.21
2018-05-11T19:30:53.264Z,101757.69
2018-05-11T19:33:21.587Z,101751.83
2018-05-11T19:35:50.590Z,101756.02
2018-05-11T19:38:19.641Z,101743.85
2018-05-11T19:40:48.051Z,101747.61
2018-05-11T19:43:17.690Z,101750.14
2018-05-11T19:45:46.809Z,101757.27
2018-05-11T19:48:15.106Z,101763.94
2018-05-11T19:50:43.396Z,101761.43
2018-05-11T19:53:11.698Z,101758.52
2018-05-11T19:55:40.894Z,101758.91
2018-05-11T19:58:10.579Z,101757.64
2018-05-11T20:00:38.863Z,101758.48
2018-05-11T20:03:07.143Z,101755.13
2018-05-11T20:05:35.450Z,101762.64
2018-05-11T20:08:05.129Z,101760.52
2018-05-11T20:10:34.230Z,101758.80
2018-05-11T20:13:02.811Z,101762.60
2018-05-11T20:15:32.571Z,101759.69
2018-05-11T20:18:01.607Z,101760.51
2018-05-11T20:20:29.918Z,101757.89
2018-05-11T20:22:58.807Z,101760.00
2018-05-11T20:25:27.153Z,101767.18
2018-05-11T20:27:55.540Z,101771.36
2018-05-11T20:30:24.768Z,101779.66
2018-05-11T20:32:53.118Z,101777.55
2018-05-11T20:35:21.587Z,101771.72
2018-05-11T20:37:51.132Z,101771.66
2018-05-11T20:40:19.949Z,101770.45
2018-05-11T20:42:49.035Z,101773.32
2018-05-11T20:45:18.487Z,101766.20
2018-05-11T20:47:47.416Z,101770.03
2018-05-11T20:50:15.740Z,101770.41
2018-05-11T20:52:44.844Z,101769.57
2018-05-11T20:55:13.757Z,101765.34
2018-05-11T20:57:42.097Z,101769.19
2018-05-11T21:00:11.149Z,101763.29
2018-05-11T21:02:39.499Z,101771.17
2018-05-11T21:05:07.786Z,101762.82
2018-05-11T21:07:36.178Z,101774.52
2018-05-11T21:10:04.476Z,101779.92
2018-05-11T21:12:32.808Z,101776.59
2018-05-11T21:15:01.504Z,101777.41
2018-05-11T21:17:30.939Z,101780.42
2018-05-11T21:19:59.247Z,101777.85
2018-05-11T21:22:28.332Z,101782.87
2018-05-11T21:24:58.239Z,101789.16
2018-05-11T21:27:26.602Z,101786.22
2018-05-11T21:29:54.931Z,101785.84
2018-05-11T21:32:23.207Z,101787.45
2018-05-11T21:34:52.194Z,101784.12
2018-05-11T21:37:21.328Z,101783.17
2018-05-11T21:39:49.636Z,101783.23
2018-05-11T21:42:18.191Z,101787.03
2018-05-11T21:44:47.091Z,101788.27
2018-05-11T21:47:15.364Z,101782.86
2018-05-11T21:49:43.659Z,101788.28
2018-05-11T21:52:12.091Z,101787.45
2018-05-11T21:54:41.221Z,101788.72
2018-05-11T21:57:09.555Z,101782.00
2018-05-11T21:59:37.837Z,101784.91
2018-05-11T22:02:07.508Z,101786.14
2018-05-11T22:04:36.227Z,101780.23
2018-05-11T22:07:05.499Z,101781.82
2018-05-11T22:09:34.239Z,101777.25
2018-05-11T22:12:02.528Z,101773.84
2018-05-11T22:14:31.096Z,101781.14
2018-05-11T22:17:00.055Z,101792.67
2018-05-11T22:19:28.339Z,101791.05
2018-05-11T22:21:57.273Z,101785.27
2018-05-11T22:24:25.572Z,101782.37
2018-05-11T22:26:54.657Z,101778.61
2018-05-11T22:29:22.960Z,101773.13
2018-05-11T22:31:51.415Z,101778.14
2018-05-11T22:34:20.543Z,101776.91
2018-05-11T22:36:49.228Z,101772.27
2018-05-11T22:39:18.102Z,101771.02
2018-05-11T22:41:47.090Z,101772.20
2018-05-11T22:44:15.375Z,101770.55
2018-05-11T22:46:43.876Z,101769.64
2018-05-11T22:49:12.455Z,101773.70
2018-05-11T22:51:41.048Z,101776.24
2018-05-11T22:54:09.402Z,101761.30
2018-05-11T22:56:38.607Z,101771.26
2018-05-11T22:59:06.938Z,101764.09
2018-05-11T23:01:37.559Z,101756.98
2018-05-11T23:04:07.143Z,101759.90
2018-05-11T23:06:35.919Z,101751.10
2018-05-11T23:09:04.213Z,101755.48
2018-05-11T23:11:32.522Z,101747.38
2018-05-11T23:14:01.588Z,101747.75
2018-05-11T23:16:30.769Z,101754.37
2018-05-11T23:18:59.145Z,101753.52
2018-05-11T23:21:27.411Z,101746.88
2018-05-11T23:23:56.007Z,101750.55
2018-05-11T23:26:25.203Z,101744.23
2018-05-11T23:28:54.120Z,101740.88
2018-05-11T23:31:22.490Z,101740.93
2018-05-11T23:33:50.955Z,101741.79
2018-05-11T23:36:19.231Z,101734.52
2018-05-11T23:38:47.542Z,101734.55
2018-05-11T23:41:16.448Z,101737.44
2018-05-11T23:43:45.574Z,101733.38
2018-05-11T23:46:14.090Z,101732.06
2018-05-11T23:48:42.383Z,101730.70
2018-05-11T23:51:10.696Z,101722.36
2018-05-11T23:53:39.736Z,101718.11
2018-05-11T23:56:08.131Z,101723.55
2018-05-11T23:58:36.426Z,101725.99
